Time;durP1;ratioP1;P1;durP2;ratioP2;P2;SDS_P1;SDS_P2;PMS_P1;PMS_P2;Temp;Humidity;BMP_temperature;BMP_pressure;BME280_temperature;BME280_humidity;BME280_pressure;Samples;Min_cycle;Max_cycle;Signal;HPM_P1;HPM_P2
2024/03/25 00:00:11;;;;;;;6.65;2.47;;;;;;;3.96;100.00;96541.81;5061821;28;20134;-64
2024/03/25 00:02:40;;;;;;;4.60;2.17;;;;;;;3.93;100.00;96534.22;5058410;28;20530;-63
2024/03/25 00:05:09;;;;;;;9.25;3.17;;;;;;;3.91;100.00;96539.84;5052833;28;20049;-64
2024/03/25 00:07:36;;;;;;;4.97;2.03;;;;;;;3.90;100.00;96541.69;5056949;28;20040;-64
2024/03/25 00:10:02;;;;;;;6.90;2.22;;;;;;;3.91;100.00;96545.19;5055878;28;20032;-64
2024/03/25 00:12:28;;;;;;;9.43;2.50;;;;;;;3.92;100.00;96538.78;5057638;28;20059;-65
2024/03/25 00:14:54;;;;;;;6.78;2.17;;;;;;;3.90;100.00;96530.97;5058595;28;20057;-64
2024/03/25 00:17:19;;;;;;;5.03;2.15;;;;;;;3.90;100.00;96538.19;5063919;28;20119;-64
2024/03/25 00:19:50;;;;;;;5.70;2.13;;;;;;;3.93;100.00;96532.38;5057312;28;20040;-66
2024/03/25 00:22:20;;;;;;;12.60;2.53;;;;;;;3.87;100.00;96536.78;5054058;28;20039;-64
2024/03/25 00:24:47;;;;;;;4.35;1.70;;;;;;;3.87;100.00;96536.78;5057930;28;20044;-64
2024/03/25 00:27:13;;;;;;;4.18;1.83;;;;;;;3.98;100.00;96534.38;5058510;28;20051;-62
2024/03/25 00:29:39;;;;;;;4.82;1.95;;;;;;;3.96;100.00;96529.25;5063254;28;20674;-62
2024/03/25 00:32:05;;;;;;;5.13;2.05;;;;;;;3.93;100.00;96534.22;5055829;28;20060;-62
2024/03/25 00:34:32;;;;;;;4.05;2.17;;;;;;;3.84;100.00;96525.72;5065067;28;20043;-62
2024/03/25 00:36:58;;;;;;;3.40;1.88;;;;;;;3.86;100.00;96532.47;5050302;28;20044;-64
2024/03/25 00:39:24;;;;;;;7.78;1.92;;;;;;;3.88;100.00;96526.88;5064803;28;20134;-63
2024/03/25 00:41:49;;;;;;;4.65;2.22;;;;;;;3.77;100.00;96523.94;5060674;28;20043;-63
2024/03/25 00:44:15;;;;;;;5.35;2.10;;;;;;;3.68;100.00;96519.16;5065675;28;20064;-63
2024/03/25 00:46:41;;;;;;;7.88;2.35;;;;;;;3.79;100.00;96520.25;5063313;28;20055;-65
2024/03/25 00:49:08;;;;;;;5.53;2.60;;;;;;;3.76;100.00;96525.00;5056613;28;20718;-64
2024/03/25 00:51:34;;;;;;;5.88;2.70;;;;;;;3.68;100.00;96524.53;5056476;28;20392;-63
2024/03/25 00:53:59;;;;;;;7.65;2.42;;;;;;;3.71;100.00;96522.19;5057448;28;20155;-64
2024/03/25 00:56:26;;;;;;;6.07;2.58;;;;;;;3.71;100.00;96516.00;5054546;28;20215;-63
2024/03/25 00:58:51;;;;;;;4.60;2.45;;;;;;;3.70;100.00;96522.41;5057838;28;20051;-62
2024/03/25 01:01:17;;;;;;;6.28;3.08;;;;;;;3.75;100.00;96514.50;5060182;28;20040;-63
2024/03/25 01:03:42;;;;;;;6.20;2.17;;;;;;;3.76;100.00;96522.31;5060867;28;20050;-63
2024/03/25 01:06:08;;;;;;;5.85;2.50;;;;;;;3.80;100.00;96508.47;5060014;28;20123;-65
2024/03/25 01:08:34;;;;;;;4.93;2.15;;;;;;;3.73;100.00;96512.06;5070020;28;20040;-63
2024/03/25 01:11:00;;;;;;;6.07;2.30;;;;;;;3.68;100.00;96506.56;5050768;28;20041;-62
2024/03/25 01:13:25;;;;;;;4.60;2.35;;;;;;;3.76;100.00;96508.94;5068904;28;20093;-62
2024/03/25 01:15:51;;;;;;;5.63;2.90;;;;;;;3.80;100.00;96503.13;5062796;28;20086;-62
2024/03/25 01:18:18;;;;;;;6.35;2.50;;;;;;;3.85;100.00;96505.91;5060986;28;20029;-62
2024/03/25 01:20:44;;;;;;;4.90;2.40;;;;;;;3.86;100.00;96499.50;5055669;28;20736;-62
2024/03/25 01:23:10;;;;;;;8.07;2.17;;;;;;;3.77;100.00;96499.84;5060788;28;20041;-61
2024/03/25 01:25:36;;;;;;;4.88;2.10;;;;;;;3.68;100.00;96495.06;5063830;28;20571;-61
2024/03/25 01:28:01;;;;;;;5.82;2.13;;;;;;;3.65;100.00;96491.00;5059419;28;20049;-63
2024/03/25 01:30:28;;;;;;;12.23;2.92;;;;;;;3.62;100.00;96497.59;5064393;28;20047;-63
2024/03/25 01:32:54;;;;;;;3.40;2.10;;;;;;;3.64;100.00;96500.03;5060560;28;20524;-62
2024/03/25 01:35:20;;;;;;;5.38;2.47;;;;;;;3.66;100.00;96495.28;5060878;28;20041;-62
2024/03/25 01:37:46;;;;;;;5.95;2.22;;;;;;;3.63;100.00;96493.06;5062672;28;20542;-63
2024/03/25 01:40:11;;;;;;;7.68;3.00;;;;;;;3.62;100.00;96486.88;5060088;28;20394;-63
2024/03/25 01:42:37;;;;;;;4.85;2.33;;;;;;;3.66;100.00;96494.47;5064950;28;20123;-64
2024/03/25 01:45:04;;;;;;;4.88;2.03;;;;;;;3.76;100.00;96492.84;5056842;28;20375;-63
2024/03/25 01:47:33;;;;;;;6.55;2.55;;;;;;;3.73;100.00;96498.66;5058188;28;20047;-63
2024/03/25 01:49:59;;;;;;;6.15;2.70;;;;;;;3.76;100.00;96503.56;5057068;28;20232;-64
2024/03/25 01:52:26;;;;;;;5.38;2.35;;;;;;;3.85;100.00;96508.59;5056529;28;20554;-63
2024/03/25 01:54:53;;;;;;;5.65;2.60;;;;;;;3.87;100.00;96507.31;5060879;28;20041;-63
2024/03/25 01:57:19;;;;;;;11.57;2.50;;;;;;;3.79;100.00;96506.84;5063045;28;20044;-63
2024/03/25 01:59:45;;;;;;;6.60;2.47;;;;;;;3.81;100.00;96507.41;5058033;28;20070;-63
2024/03/25 02:02:12;;;;;;;7.45;2.83;;;;;;;3.82;100.00;96506.38;5061052;28;20041;-64
2024/03/25 02:04:40;;;;;;;6.25;2.72;;;;;;;3.75;100.00;96501.13;5053340;28;20048;-64
2024/03/25 02:07:08;;;;;;;5.97;2.88;;;;;;;3.77;100.00;96505.19;5047211;28;20037;-64
2024/03/25 02:09:35;;;;;;;8.00;2.78;;;;;;;3.83;100.00;96511.50;5065003;28;20093;-64
2024/03/25 02:12:02;;;;;;;6.10;2.85;;;;;;;3.77;100.00;96505.19;5055736;28;20043;-64
2024/03/25 02:14:28;;;;;;;6.05;2.58;;;;;;;3.79;100.00;96506.84;5050745;28;20855;-63
2024/03/25 02:16:53;;;;;;;6.82;2.13;;;;;;;3.84;100.00;96498.94;5052607;28;20052;-64
2024/03/25 02:19:21;;;;;;;5.90;2.60;;;;;;;3.77;100.00;96504.41;5059356;28;20045;-63
2024/03/25 02:21:47;;;;;;;4.70;2.38;;;;;;;3.79;100.00;96498.81;5060396;28;20051;-63
2024/03/25 02:24:15;;;;;;;9.20;3.22;;;;;;;3.75;100.00;96509.97;5058086;28;20040;-62
2024/03/25 02:26:41;;;;;;;6.47;2.72;;;;;;;3.76;100.00;96500.09;5057224;28;20044;-63
2024/03/25 02:29:09;;;;;;;7.93;2.22;;;;;;;3.80;100.00;96505.78;5063257;28;20123;-62
2024/03/25 02:31:35;;;;;;;5.18;2.80;;;;;;;3.73;100.00;96504.03;5056713;28;20570;-62
2024/03/25 02:34:00;;;;;;;5.13;2.60;;;;;;;3.86;100.00;96500.34;5058407;28;20048;-62
2024/03/25 02:36:26;;;;;;;10.52;2.88;;;;;;;3.82;100.00;96498.34;5063384;28;20096;-63
2024/03/25 02:38:52;;;;;;;6.57;2.70;;;;;;;3.79;100.00;96501.50;5070052;28;20042;-64
2024/03/25 02:41:17;;;;;;;6.43;2.35;;;;;;;3.76;100.00;96498.22;5051808;28;20504;-62
2024/03/25 02:43:43;;;;;;;6.00;3.10;;;;;;;3.70;100.00;96491.13;5067056;28;20044;-62
2024/03/25 02:46:09;;;;;;;5.75;2.40;;;;;;;3.63;100.00;96491.22;5052627;28;20044;-63
2024/03/25 02:48:34;;;;;;;8.05;3.03;;;;;;;3.68;100.00;96484.34;5070901;28;20039;-63
2024/03/25 02:51:00;;;;;;;6.07;2.85;;;;;;;3.57;100.00;96484.09;5058130;28;20037;-63
2024/03/25 02:53:25;;;;;;;5.85;2.53;;;;;;;3.61;100.00;96485.25;5062750;28;20045;-63
2024/03/25 02:55:51;;;;;;;7.30;2.90;;;;;;;3.60;100.00;96482.81;5057795;28;20058;-62
2024/03/25 02:58:16;;;;;;;5.95;2.75;;;;;;;3.69;100.00;96480.63;5060961;28;20073;-64
2024/03/25 03:00:42;;;;;;;5.75;2.75;;;;;;;3.68;100.00;96479.00;5053345;28;20058;-63
2024/03/25 03:03:08;;;;;;;5.68;2.45;;;;;;;3.63;100.00;96482.34;5067591;28;20033;-63
2024/03/25 03:05:35;;;;;;;5.05;2.60;;;;;;;3.68;100.00;96487.03;5067489;28;20045;-63
2024/03/25 03:08:00;;;;;;;5.50;2.45;;;;;;;3.69;100.00;96486.78;5056391;28;20045;-64
2024/03/25 03:10:26;;;;;;;8.15;2.90;;;;;;;3.66;100.00;96491.78;5048610;28;20047;-63
2024/03/25 03:12:51;;;;;;;4.38;2.35;;;;;;;3.58;100.00;96485.72;5055922;28;20043;-62
2024/03/25 03:15:17;;;;;;;5.40;2.25;;;;;;;3.54;100.00;96489.09;5055902;28;20108;-64
2024/03/25 03:17:43;;;;;;;7.47;2.35;;;;;;;3.61;100.00;96479.09;5061981;28;20040;-63
2024/03/25 03:20:09;;;;;;;5.10;2.58;;;;;;;3.60;100.00;96478.28;5061858;28;20524;-64
2024/03/25 03:22:35;;;;;;;6.22;3.10;;;;;;;3.56;100.00;96481.63;5061858;28;20028;-63
2024/03/25 03:25:01;;;;;;;4.47;2.28;;;;;;;3.63;100.00;96466.28;5059612;28;20044;-62
2024/03/25 03:27:26;;;;;;;7.45;3.40;;;;;;;3.56;100.00;96473.59;5058806;28;20118;-64
2024/03/25 03:29:52;;;;;;;6.70;2.67;;;;;;;3.50;100.00;96470.81;5056821;28;20123;-62
2024/03/25 03:32:18;;;;;;;6.30;2.33;;;;;;;3.38;100.00;96470.78;5056117;28;20047;-63
2024/03/25 03:34:43;;;;;;;6.95;2.65;;;;;;;3.34;100.00;96469.59;5061848;28;20127;-63
2024/03/25 03:37:09;;;;;;;6.85;2.17;;;;;;;3.40;100.00;96475.06;5058307;28;20102;-62
2024/03/25 03:39:34;;;;;;;5.57;2.45;;;;;;;3.33;100.00;96467.97;5063707;28;20036;-64
2024/03/25 03:42:00;;;;;;;6.63;2.25;;;;;;;3.28;100.00;96473.16;5060275;28;20539;-63
2024/03/25 03:44:26;;;;;;;6.63;2.55;;;;;;;3.25;100.00;96469.09;5056144;28;20041;-62
2024/03/25 03:46:51;;;;;;;7.32;2.72;;;;;;;3.27;100.00;96468.06;5060424;28;20048;-63
2024/03/25 03:49:17;;;;;;;6.15;3.22;;;;;;;3.38;100.00;96473.44;5058556;28;20079;-64
2024/03/25 03:51:42;;;;;;;4.97;2.38;;;;;;;3.31;100.00;96466.56;5059078;28;20047;-62
2024/03/25 03:54:08;;;;;;;4.63;2.05;;;;;;;3.24;100.00;96480.00;5061211;28;20040;-62
2024/03/25 03:56:33;;;;;;;7.15;2.55;;;;;;;3.18;100.00;96472.91;5056124;28;20036;-63
2024/03/25 03:58:59;;;;;;;7.85;3.17;;;;;;;3.12;100.00;96469.28;5060327;28;20079;-63
2024/03/25 04:01:24;;;;;;;6.80;2.70;;;;;;;3.04;100.00;96472.25;5059756;28;20243;-62
2024/03/25 04:03:51;;;;;;;5.70;2.55;;;;;;;3.09;100.00;96475.91;5053466;28;20060;-62
2024/03/25 04:06:16;;;;;;;6.93;2.60;;;;;;;3.11;100.00;96486.38;5057598;28;20068;-62
2024/03/25 04:08:43;;;;;;;5.97;2.72;;;;;;;3.15;100.00;96482.22;5064540;28;20709;-63
2024/03/25 04:11:09;;;;;;;5.70;2.58;;;;;;;3.11;100.00;96489.06;5062962;28;20049;-63
2024/03/25 04:13:35;;;;;;;5.43;2.90;;;;;;;3.11;100.00;96481.84;5060576;28;20174;-62
2024/03/25 04:16:03;;;;;;;6.40;2.30;;;;;;;3.11;100.00;96486.38;5054357;28;20041;-62
2024/03/25 04:18:29;;;;;;;10.25;3.47;;;;;;;3.17;100.00;96482.78;5065493;28;20169;-63
2024/03/25 04:20:54;;;;;;;8.50;2.90;;;;;;;3.21;100.00;96478.63;5057812;28;20670;-63
2024/03/25 04:23:20;;;;;;;7.35;2.92;;;;;;;3.20;100.00;96476.16;5056574;28;20566;-62
2024/03/25 04:25:45;;;;;;;8.60;3.05;;;;;;;3.19;100.00;96472.69;5060902;28;20126;-63
2024/03/25 04:28:11;;;;;;;9.52;2.80;;;;;;;3.24;100.00;96472.00;5065995;28;20123;-63
2024/03/25 04:30:37;;;;;;;6.15;2.85;;;;;;;3.24;100.00;96469.31;5067188;28;20109;-63
2024/03/25 04:33:02;;;;;;;7.50;2.72;;;;;;;3.30;100.00;96467.59;5064155;28;20074;-64
2024/03/25 04:35:28;;;;;;;6.05;2.72;;;;;;;3.25;100.00;96477.13;5059263;28;20042;-62
2024/03/25 04:37:56;;;;;;;8.43;3.40;;;;;;;3.27;100.00;96473.41;5055721;28;20419;-64
2024/03/25 04:40:22;;;;;;;6.65;2.88;;;;;;;3.23;100.00;96476.53;5055978;28;20064;-63
2024/03/25 04:42:48;;;;;;;9.27;3.28;;;;;;;3.17;100.00;96472.09;5063967;28;20570;-63
2024/03/25 04:45:14;;;;;;;10.77;4.38;;;;;;;3.19;100.00;96477.22;5057353;28;20045;-64
2024/03/25 04:47:40;;;;;;;8.38;2.92;;;;;;;3.22;100.00;96479.44;5062647;28;20040;-62
2024/03/25 04:50:06;;;;;;;7.47;2.90;;;;;;;3.17;100.00;96481.97;5053120;28;20455;-63
2024/03/25 04:52:32;;;;;;;11.05;3.03;;;;;;;3.18;100.00;96483.59;5050491;28;20040;-64
2024/03/25 04:54:58;;;;;;;7.20;3.00;;;;;;;3.16;100.00;96481.16;5057335;28;20068;-63
2024/03/25 04:57:24;;;;;;;8.02;3.30;;;;;;;3.21;100.00;96485.84;5061882;28;20036;-62
2024/03/25 04:59:50;;;;;;;8.25;3.05;;;;;;;3.10;100.00;96480.19;5063074;28;20168;-62
2024/03/25 05:02:15;;;;;;;10.57;3.10;;;;;;;3.06;100.00;96480.88;5065276;28;20029;-63
2024/03/25 05:04:41;;;;;;;7.30;2.75;;;;;;;3.11;100.00;96478.34;5064014;28;20087;-64
2024/03/25 05:07:07;;;;;;;8.32;3.10;;;;;;;3.04;100.00;96482.97;5056759;28;20048;-63
2024/03/25 05:09:32;;;;;;;9.73;2.70;;;;;;;2.99;100.00;96478.31;5058040;28;20535;-64
2024/03/25 05:11:58;;;;;;;9.10;3.50;;;;;;;3.07;100.00;96483.34;5059310;28;20060;-62
2024/03/25 05:14:24;;;;;;;6.57;2.88;;;;;;;3.11;100.00;96481.03;5054410;28;20063;-63
2024/03/25 05:16:52;;;;;;;7.75;3.50;;;;;;;3.12;100.00;96493.34;5050914;28;20135;-64
2024/03/25 05:19:18;;;;;;;5.68;2.63;;;;;;;3.23;100.00;96491.78;5064273;28;20040;-64
2024/03/25 05:21:44;;;;;;;9.98;3.20;;;;;;;3.18;100.00;96495.13;5064182;28;20097;-63
2024/03/25 05:24:10;;;;;;;8.80;3.03;;;;;;;3.18;100.00;96497.81;5063460;28;20041;-63
2024/03/25 05:26:35;;;;;;;6.18;2.78;;;;;;;3.09;100.00;96496.47;5050941;28;20044;-64
2024/03/25 05:29:01;;;;;;;5.78;2.50;;;;;;;3.17;100.00;96493.47;5052355;28;20053;-63
2024/03/25 05:31:27;;;;;;;6.65;2.90;;;;;;;3.19;100.00;96499.44;5057549;28;20055;-63
2024/03/25 05:33:53;;;;;;;7.75;3.13;;;;;;;3.16;100.00;96499.09;5063455;28;20070;-63
2024/03/25 05:36:19;;;;;;;5.82;2.85;;;;;;;3.19;100.00;96501.28;5062475;28;20045;-63
2024/03/25 05:38:45;;;;;;;8.75;3.33;;;;;;;3.24;100.00;96501.41;5058739;28;20037;-63
2024/03/25 05:41:10;;;;;;;8.02;3.17;;;;;;;3.21;100.00;96504.56;5064109;28;20585;-63
2024/03/25 05:43:36;;;;;;;5.60;3.05;;;;;;;3.13;100.00;96511.03;5062375;28;20093;-63
2024/03/25 05:46:02;;;;;;;11.00;3.10;;;;;;;3.06;100.00;96513.78;5056082;28;20055;-64
2024/03/25 05:48:28;;;;;;;9.50;3.65;;;;;;;3.11;100.00;96518.47;5059904;28;20043;-63
2024/03/25 05:51:01;;;;;;;7.35;3.38;;;;;;;3.01;100.00;96508.31;5057398;28;20130;-64
2024/03/25 05:53:28;;;;;;;9.38;3.15;;;;;;;3.07;100.00;96511.94;5053571;28;20685;-64
2024/03/25 05:55:53;;;;;;;9.15;3.58;;;;;;;3.16;100.00;96510.59;5057822;28;20051;-62
2024/03/25 05:58:19;;;;;;;5.68;3.20;;;;;;;3.21;100.00;96508.03;5057042;28;20051;-64
2024/03/25 06:00:51;;;;;;;7.18;2.85;;;;;;;3.21;100.00;96501.91;5057335;28;20530;-64
2024/03/25 06:03:17;;;;;;;9.23;2.92;;;;;;;3.29;100.00;96506.09;5054214;28;20040;-63
2024/03/25 06:05:43;;;;;;;9.07;2.60;;;;;;;3.14;100.00;96512.69;5053004;28;20071;-65
2024/03/25 06:08:18;;;;;;;8.98;3.33;;;;;;;3.25;100.00;96511.09;5056591;28;20096;-64
2024/03/25 06:10:44;;;;;;;5.25;2.55;;;;;;;3.26;100.00;96510.06;5059620;28;20511;-64
2024/03/25 06:13:10;;;;;;;9.15;3.30;;;;;;;3.30;100.00;96500.53;5052597;28;20107;-64
2024/03/25 06:15:35;;;;;;;7.35;2.90;;;;;;;3.27;100.00;96500.19;5059471;28;20048;-62
2024/03/25 06:18:01;;;;;;;7.13;3.15;;;;;;;3.25;100.00;96501.19;5052855;28;20044;-65
2024/03/25 06:20:26;;;;;;;8.52;3.35;;;;;;;3.16;100.00;96494.53;5052753;28;20545;-65
2024/03/25 06:22:52;;;;;;;6.40;3.35;;;;;;;3.14;100.00;96498.47;5054351;28;20114;-65
2024/03/25 06:25:17;;;;;;;9.43;3.70;;;;;;;3.12;100.00;96504.06;5049465;28;20735;-65
2024/03/25 06:27:44;;;;;;;11.35;3.83;;;;;;;3.10;100.00;96506.94;5046471;28;20051;-65
2024/03/25 06:35:39;;;;;;;8.13;3.20;;;;;;;3.44;100.00;96505.69;5060960;28;20443;-64
2024/03/25 06:38:05;;;;;;;7.47;3.25;;;;;;;3.54;100.00;96515.84;5053934;28;20040;-66
2024/03/25 06:40:30;;;;;;;8.02;3.40;;;;;;;3.68;100.00;96524.53;5054474;28;20120;-66
2024/03/25 06:42:57;;;;;;;7.40;3.45;;;;;;;3.71;100.00;96522.19;5066875;28;20093;-63
2024/03/25 06:45:22;;;;;;;5.20;2.85;;;;;;;3.76;100.00;96527.66;5050443;28;20041;-65
2024/03/25 06:47:48;;;;;;;16.85;4.13;;;;;;;3.79;100.00;96533.63;5057932;28;20040;-64
2024/03/25 06:50:14;;;;;;;8.40;3.25;;;;;;;3.89;100.00;96529.34;5060112;28;20534;-64
2024/03/25 06:52:40;;;;;;;7.40;3.72;;;;;;;3.90;100.00;96527.47;5052474;28;20036;-64
2024/03/25 06:55:06;;;;;;;5.65;2.78;;;;;;;3.96;100.00;96529.25;5049151;28;20037;-65
2024/03/25 06:57:32;;;;;;;7.82;3.40;;;;;;;4.15;100.00;96534.50;5063669;28;20495;-61
2024/03/25 06:59:57;;;;;;;5.85;3.00;;;;;;;4.18;100.00;96542.09;5050509;28;20048;-63
2024/03/25 07:02:23;;;;;;;6.55;3.35;;;;;;;4.20;100.00;96542.66;5061538;28;20033;-63
2024/03/25 07:04:49;;;;;;;6.85;2.85;;;;;;;4.32;100.00;96534.66;5039113;28;20216;-61
2024/03/25 07:07:15;;;;;;;7.95;2.88;;;;;;;4.33;100.00;96543.47;5049751;28;20051;-62
2024/03/25 07:09:40;;;;;;;6.85;2.83;;;;;;;4.39;100.00;96542.56;5060009;28;20122;-62
2024/03/25 07:12:07;;;;;;;6.65;2.40;;;;;;;4.41;100.00;96533.25;5060421;28;20094;-63
2024/03/25 07:14:32;;;;;;;6.00;2.50;;;;;;;4.47;100.00;96530.66;5062140;28;20541;-62
2024/03/25 07:16:58;;;;;;;7.63;3.60;;;;;;;4.50;100.00;96533.69;5062497;28;20119;-63
2024/03/25 07:19:24;;;;;;;6.57;3.03;;;;;;;4.59;100.00;96530.66;5050863;28;20036;-62
2024/03/25 07:21:49;;;;;;;4.82;2.50;;;;;;;4.64;100.00;96518.19;5051375;28;20282;-63
2024/03/25 07:24:15;;;;;;;6.30;2.75;;;;;;;4.68;100.00;96515.84;5055998;28;20115;-64
2024/03/25 07:26:40;;;;;;;7.18;2.65;;;;;;;4.76;100.00;96510.13;5068876;28;20032;-63
2024/03/25 07:29:06;;;;;;;7.28;2.70;;;;;;;4.86;100.00;96522.13;5062992;28;20041;-63
2024/03/25 07:31:32;;;;;;;7.72;2.42;;;;;;;4.98;100.00;96519.41;5063635;28;20053;-64
2024/03/25 07:33:57;;;;;;;6.32;2.45;;;;;;;5.01;100.00;96519.75;5046724;28;20088;-63
2024/03/25 07:36:23;;;;;;;6.07;2.03;;;;;;;5.17;100.00;96512.81;5057371;28;20416;-61
2024/03/25 07:38:48;;;;;;;4.88;2.03;;;;;;;5.25;100.00;96505.44;5059532;28;20044;-64
2024/03/25 07:41:14;;;;;;;4.30;2.10;;;;;;;5.09;100.00;96505.16;5060200;28;20064;-65
2024/03/25 07:43:39;;;;;;;7.47;1.90;;;;;;;5.02;100.00;96505.28;5060478;28;20085;-64
2024/03/25 07:46:05;;;;;;;6.38;2.08;;;;;;;5.13;100.00;96508.19;5016536;28;1078641;-63
2024/03/25 07:48:31;;;;;;;7.05;2.05;;;;;;;5.11;100.00;96507.59;5052124;28;20101;-65
2024/03/25 07:50:57;;;;;;;4.55;1.70;;;;;;;5.15;100.00;96506.06;5050142;28;20048;-65
2024/03/25 07:53:22;;;;;;;5.35;1.67;;;;;;;5.22;100.00;96501.38;5045761;28;20615;-64
2024/03/25 07:55:48;;;;;;;3.78;1.77;;;;;;;5.33;100.00;96505.91;5054975;28;20404;-65
2024/03/25 07:58:13;;;;;;;6.13;1.88;;;;;;;5.44;100.00;96503.38;5053684;28;20131;-64
2024/03/25 08:00:39;;;;;;;3.40;1.50;;;;;;;5.54;100.00;96508.97;5064935;28;20044;-64
2024/03/25 08:03:05;;;;;;;6.40;1.60;;;;;;;5.63;100.00;96517.44;5055694;28;20075;-65
2024/03/25 08:05:30;;;;;;;5.00;1.65;;;;;;;5.59;100.00;96517.09;5057532;28;20079;-64
2024/03/25 08:07:56;;;;;;;5.88;2.00;;;;;;;5.82;100.00;96515.34;5045768;28;20125;-65
2024/03/25 08:10:22;;;;;;;4.40;1.27;;;;;;;5.90;100.00;96516.81;5057422;28;20044;-63
2024/03/25 08:12:48;;;;;;;5.28;1.30;;;;;;;5.95;100.00;96521.47;5068283;28;20048;-65
2024/03/25 08:15:14;;;;;;;4.38;1.27;;;;;;;6.06;100.00;96512.56;5060675;28;20075;-63
2024/03/25 08:17:39;;;;;;;2.47;0.90;;;;;;;6.05;100.00;96507.41;5053459;28;20040;-65
2024/03/25 08:20:05;;;;;;;3.40;1.10;;;;;;;6.02;100.00;96508.69;5056894;28;20457;-64
2024/03/25 08:22:31;;;;;;;3.58;1.38;;;;;;;5.88;100.00;96500.13;5050165;28;20507;-68
2024/03/25 08:24:57;;;;;;;2.92;1.15;;;;;;;5.80;100.00;96495.97;5052944;28;20082;-64
2024/03/25 08:27:22;;;;;;;4.88;1.25;;;;;;;5.81;100.00;96499.47;5056296;28;20683;-64
2024/03/25 08:29:51;;;;;;;6.65;1.38;;;;;;;5.93;100.00;96485.97;5054951;28;20076;-64
2024/03/25 08:32:16;;;;;;;3.45;1.27;;;;;;;5.96;100.00;96488.97;5057763;28;20040;-65
2024/03/25 08:34:42;;;;;;;4.28;1.33;;;;;;;5.99;100.00;96493.06;5056828;28;20060;-63
2024/03/25 08:37:08;;;;;;;4.22;1.50;;;;;;;6.03;100.00;96493.38;5060151;28;20622;-65
2024/03/25 08:39:33;;;;;;;3.53;1.15;;;;;;;6.03;100.00;96488.84;5063567;28;20052;-65
2024/03/25 08:41:59;;;;;;;6.07;1.58;;;;;;;6.16;98.78;96497.66;5057720;28;20132;-65
2024/03/25 08:44:24;;;;;;;3.95;1.20;;;;;;;6.10;92.90;96491.38;5055612;28;20045;-64
2024/03/25 08:46:50;;;;;;;5.03;1.30;;;;;;;6.17;92.72;96486.66;5065129;28;20168;-64
2024/03/25 08:49:15;;;;;;;3.47;1.20;;;;;;;6.16;95.74;96487.69;5055546;28;20062;-65
2024/03/25 08:51:41;;;;;;;3.17;1.20;;;;;;;6.11;95.56;96480.38;5056394;28;20109;-65
2024/03/25 08:54:07;;;;;;;4.63;0.98;;;;;;;6.23;94.50;96477.59;5062088;28;20044;-65
2024/03/25 08:56:32;;;;;;;3.60;0.82;;;;;;;6.32;94.16;96491.44;5065405;28;20396;-64
2024/03/25 08:58:58;;;;;;;4.47;1.20;;;;;;;6.45;91.46;96476.81;5066305;28;20058;-64
2024/03/25 09:01:24;;;;;;;2.78;1.00;;;;;;;6.59;90.09;96471.91;5066458;28;20082;-64
2024/03/25 09:03:50;;;;;;;3.08;0.88;;;;;;;6.74;91.41;96465.09;5059753;28;20033;-64
2024/03/25 09:06:16;;;;;;;4.45;1.48;;;;;;;6.78;87.42;96468.13;5065982;28;20041;-64
2024/03/25 09:11:26;;;;;;;2.78;1.08;;;;;;;6.99;89.42;96469.16;5068983;28;20088;-65
2024/03/25 09:13:52;;;;;;;2.75;1.15;;;;;;;7.09;91.13;96469.31;5053244;28;20041;-63
2024/03/25 09:16:19;;;;;;;6.72;1.48;;;;;;;6.99;85.26;96464.63;5056455;28;20048;-65
2024/03/25 09:18:44;;;;;;;3.30;1.00;;;;;;;7.01;85.13;96472.44;5062673;28;20044;-64
2024/03/25 09:21:11;;;;;;;4.65;0.88;;;;;;;7.05;88.30;96465.50;5053717;28;20051;-64
2024/03/25 09:23:36;;;;;;;4.22;1.20;;;;;;;7.10;89.73;96470.94;5057627;28;20044;-63
2024/03/25 09:26:02;;;;;;;4.75;1.35;;;;;;;7.17;86.93;96462.66;5060736;28;20050;-64
2024/03/25 09:28:28;;;;;;;2.83;1.02;;;;;;;7.03;83.29;96454.16;5049923;28;20716;-65
2024/03/25 09:30:53;;;;;;;4.43;1.08;;;;;;;6.93;84.79;96451.34;5054446;28;20041;-64
2024/03/25 09:33:19;;;;;;;4.25;1.05;;;;;;;7.02;81.74;96442.59;5059362;28;20127;-63
2024/03/25 09:35:45;;;;;;;5.13;1.40;;;;;;;7.19;85.59;96443.56;5058652;28;20071;-65
2024/03/25 09:38:10;;;;;;;3.20;1.15;;;;;;;7.24;85.38;96432.84;5063375;28;20056;-63
2024/03/25 09:40:39;;;;;;;5.32;1.40;;;;;;;7.40;81.92;96431.94;5045891;28;20040;-64
2024/03/25 09:43:12;;;;;;;3.75;1.20;;;;;;;7.32;83.57;96434.25;5049216;28;20875;-64
2024/03/25 09:45:40;;;;;;;2.40;0.75;;;;;;;7.35;80.54;96439.97;5051751;28;20067;-64
2024/03/25 09:48:06;;;;;;;2.17;1.15;;;;;;;7.58;81.04;96434.50;5055019;28;20045;-64
2024/03/25 09:50:33;;;;;;;2.50;1.13;;;;;;;7.66;79.45;96425.94;5048598;28;20067;-64
2024/03/25 09:52:58;;;;;;;2.83;1.23;;;;;;;7.73;77.61;96428.41;5057330;28;20045;-64
2024/03/25 09:55:24;;;;;;;2.70;0.93;;;;;;;7.93;75.87;96436.69;5048556;28;20047;-63
2024/03/25 09:57:51;;;;;;;3.92;1.08;;;;;;;8.09;76.96;96433.28;5058447;28;20051;-63
2024/03/25 10:00:18;;;;;;;4.25;1.10;;;;;;;8.30;76.97;96418.84;5042986;28;20072;-64
2024/03/25 10:02:44;;;;;;;1.83;0.77;;;;;;;8.31;75.34;96427.75;5055720;28;20052;-64
2024/03/25 10:05:09;;;;;;;5.68;1.23;;;;;;;8.58;75.76;96416.06;5058695;28;20045;-64
2024/03/25 10:07:35;;;;;;;2.90;1.00;;;;;;;8.30;73.34;96404.56;5056518;28;20052;-63
2024/03/25 10:10:05;;;;;;;4.43;1.20;;;;;;;8.45;70.87;96409.25;5056494;28;20075;-63
2024/03/25 10:12:31;;;;;;;5.20;1.50;;;;;;;8.59;73.93;96404.22;5055686;28;20103;-64
2024/03/25 10:14:57;;;;;;;4.65;1.63;;;;;;;8.43;71.67;96403.28;5056126;28;20044;-64
2024/03/25 10:17:23;;;;;;;4.88;1.10;;;;;;;8.34;72.01;96392.19;5054303;28;20075;-64
2024/03/25 10:19:49;;;;;;;2.53;1.13;;;;;;;8.28;74.69;96383.25;5058867;28;20041;-64
2024/03/25 10:22:14;;;;;;;2.30;1.05;;;;;;;8.46;72.50;96387.41;5050713;28;20532;-63
2024/03/25 10:24:42;;;;;;;3.75;1.10;;;;;;;8.42;70.96;96380.91;5059149;28;20450;-65
2024/03/25 10:27:21;;;;;;;5.47;1.73;;;;;;;8.05;67.65;96371.81;5058252;28;20049;-64
2024/03/25 10:29:47;;;;;;;2.70;1.13;;;;;;;8.18;70.78;96375.91;5055690;28;20451;-64
2024/03/25 10:32:14;;;;;;;6.82;1.95;;;;;;;8.32;66.79;96372.75;5055542;28;20859;-63
2024/03/25 10:34:40;;;;;;;3.85;1.35;;;;;;;8.46;66.75;96367.69;5047838;28;20568;-63
2024/03/25 10:37:09;;;;;;;2.75;1.10;;;;;;;8.38;65.08;96366.31;5065981;28;20040;-64
2024/03/25 10:39:40;;;;;;;2.88;1.35;;;;;;;8.05;63.01;96362.91;5050268;28;20044;-63
2024/03/25 10:42:05;;;;;;;5.78;1.45;;;;;;;7.97;69.03;96358.00;5058584;28;20043;-63
2024/03/25 10:44:33;;;;;;;2.85;1.35;;;;;;;8.22;64.76;96364.63;5061452;28;20536;-64
2024/03/25 10:47:05;;;;;;;3.20;1.25;;;;;;;8.42;66.35;96347.72;5046446;28;20094;-63
2024/03/25 10:49:41;;;;;;;4.90;1.33;;;;;;;8.63;72.27;96343.25;5057364;28;20043;-64
2024/03/25 10:52:12;;;;;;;1.85;1.00;;;;;;;8.85;72.95;96348.44;5056205;28;20063;-63
2024/03/25 10:54:39;;;;;;;3.22;1.13;;;;;;;8.92;72.64;96344.69;5062818;28;20051;-64
2024/03/25 10:57:07;;;;;;;5.07;1.48;;;;;;;8.83;71.51;96338.97;5057737;28;20044;-64
2024/03/25 10:59:37;;;;;;;5.32;1.55;;;;;;;8.78;70.57;96338.97;5062808;28;20156;-63
2024/03/25 11:02:03;;;;;;;3.17;1.05;;;;;;;8.89;68.70;96327.13;5049053;28;20125;-63
2024/03/25 11:04:31;;;;;;;3.40;1.50;;;;;;;8.95;69.00;96334.16;5059349;28;20044;-67
2024/03/25 11:07:07;;;;;;;3.85;0.93;;;;;;;9.17;69.22;96332.28;5054591;28;20058;-57
2024/03/25 11:09:33;;;;;;;4.90;1.40;;;;;;;9.34;69.29;96326.63;5062470;28;20036;-63
2024/03/25 11:11:59;;;;;;;3.92;1.38;;;;;;;8.92;63.64;96320.38;5051569;28;20634;-63
2024/03/25 11:14:28;;;;;;;6.60;1.50;;;;;;;9.02;66.38;96308.75;5062789;28;20404;-64
2024/03/25 11:16:54;;;;;;;3.67;1.33;;;;;;;9.24;62.29;96305.81;5058485;28;20055;-63
2024/03/25 11:19:21;;;;;;;4.40;1.27;;;;;;;9.41;62.72;96305.56;5054616;28;20044;-62
2024/03/25 11:21:47;;;;;;;5.38;1.27;;;;;;;9.33;63.96;96296.09;5058679;28;20066;-61
2024/03/25 11:24:12;;;;;;;3.53;1.30;;;;;;;9.19;64.72;96293.13;5060273;28;20476;-62
2024/03/25 11:26:42;;;;;;;2.63;1.20;;;;;;;9.47;63.73;96293.66;5066390;28;20102;-63
2024/03/25 11:29:08;;;;;;;4.18;1.50;;;;;;;9.49;67.13;96282.59;5062768;28;20048;-62
2024/03/25 11:31:37;;;;;;;4.35;1.48;;;;;;;9.55;64.87;96276.06;5054701;28;20051;-62
2024/03/25 11:34:08;;;;;;;2.75;1.10;;;;;;;9.70;65.87;96282.56;5045862;28;20032;-62
2024/03/25 11:36:33;;;;;;;5.25;1.38;;;;;;;9.63;65.94;96275.53;5060227;28;20060;-63